Plaza, Washington
Current Conditions -  °F | °C
As of 7:53 AM on Friday 28 Nov 2014 (Local Time) from KGEG Reporting Station
Broken Clouds Broken Clouds  
Wind Chill:   Ceiling: 16000
Heat Index:   Visibility: 10mi
Dew Point:   Wind: 23mph
Humidity: 80%   Direction: 210°SSW
Pressure: 29.52"   Gusts: 29mph
Location:  47.2196°N, 117.453°W
Report Text: KGEG 281553Z 21020G25KT 10SM FEW025 SCT060 BKN160 09/06 A2952 RMK AO2 PK WND 21028/1535 SLP998 T00890056
Loading
Personal Weather Stations






























Interactive Weather Map New forecast layout! Learn more

10-Day Weather Forecast

Advertisements
Track Severe Weather on mobile